sensor_id;sensor_type;location;lat;lon;timestamp;P1;durP1;ratioP1;P2;durP2;ratioP2
3299;SDS011;1662;49.310;8.134;2023-06-22T00:02:00;6.90;;;6.30;;
3299;SDS011;1662;49.310;8.134;2023-06-22T00:04:27;7.40;;;6.90;;
3299;SDS011;1662;49.310;8.134;2023-06-22T00:06:52;6.73;;;6.20;;
3299;SDS011;1662;49.310;8.134;2023-06-22T00:09:18;7.00;;;6.50;;
3299;SDS011;1662;49.310;8.134;2023-06-22T00:11:44;7.23;;;6.73;;
3299;SDS011;1662;49.310;8.134;2023-06-22T00:14:10;7.50;;;6.80;;
3299;SDS011;1662;49.310;8.134;2023-06-22T00:16:35;7.57;;;6.87;;
3299;SDS011;1662;49.310;8.134;2023-06-22T00:19:01;7.03;;;6.37;;
3299;SDS011;1662;49.310;8.134;2023-06-22T00:21:28;7.67;;;6.90;;
3299;SDS011;1662;49.310;8.134;2023-06-22T00:23:54;8.00;;;7.30;;
3299;SDS011;1662;49.310;8.134;2023-06-22T00:26:22;7.20;;;6.60;;
3299;SDS011;1662;49.310;8.134;2023-06-22T00:28:48;7.70;;;7.00;;
3299;SDS011;1662;49.310;8.134;2023-06-22T00:31:14;8.10;;;6.47;;
3299;SDS011;1662;49.310;8.134;2023-06-22T00:33:39;10.27;;;8.70;;
3299;SDS011;1662;49.310;8.134;2023-06-22T00:36:05;14.97;;;8.13;;
3299;SDS011;1662;49.310;8.134;2023-06-22T00:38:32;10.37;;;7.80;;
3299;SDS011;1662;49.310;8.134;2023-06-22T00:40:58;7.23;;;6.63;;
3299;SDS011;1662;49.310;8.134;2023-06-22T00:43:24;8.60;;;7.53;;
3299;SDS011;1662;49.310;8.134;2023-06-22T00:45:50;8.90;;;8.00;;
3299;SDS011;1662;49.310;8.134;2023-06-22T00:48:15;8.80;;;7.93;;
3299;SDS011;1662;49.310;8.134;2023-06-22T00:50:43;10.30;;;7.30;;
3299;SDS011;1662;49.310;8.134;2023-06-22T00:53:09;8.10;;;7.30;;
3299;SDS011;1662;49.310;8.134;2023-06-22T00:55:36;8.43;;;7.60;;
3299;SDS011;1662;49.310;8.134;2023-06-22T00:58:04;8.27;;;7.57;;
3299;SDS011;1662;49.310;8.134;2023-06-22T01:00:33;8.60;;;7.03;;
3299;SDS011;1662;49.310;8.134;2023-06-22T01:02:59;9.87;;;8.80;;
3299;SDS011;1662;49.310;8.134;2023-06-22T01:05:24;9.53;;;8.07;;
3299;SDS011;1662;49.310;8.134;2023-06-22T01:08:08;8.90;;;8.10;;
3299;SDS011;1662;49.310;8.134;2023-06-22T01:13:32;8.13;;;7.43;;
3299;SDS011;1662;49.310;8.134;2023-06-22T01:16:23;8.80;;;7.90;;
3299;SDS011;1662;49.310;8.134;2023-06-22T01:18:52;10.10;;;9.30;;
3299;SDS011;1662;49.310;8.134;2023-06-22T01:21:20;9.43;;;8.63;;
3299;SDS011;1662;49.310;8.134;2023-06-22T01:26:42;9.20;;;8.13;;
3299;SDS011;1662;49.310;8.134;2023-06-22T01:29:19;8.43;;;7.73;;
3299;SDS011;1662;49.310;8.134;2023-06-22T01:31:45;9.07;;;8.27;;
3299;SDS011;1662;49.310;8.134;2023-06-22T01:34:13;9.77;;;8.93;;
3299;SDS011;1662;49.310;8.134;2023-06-22T01:36:40;9.23;;;8.27;;
3299;SDS011;1662;49.310;8.134;2023-06-22T01:39:06;8.50;;;7.80;;
3299;SDS011;1662;49.310;8.134;2023-06-22T01:41:35;8.30;;;7.50;;
3299;SDS011;1662;49.310;8.134;2023-06-22T01:44:02;8.10;;;7.50;;
3299;SDS011;1662;49.310;8.134;2023-06-22T01:46:33;8.93;;;8.20;;
3299;SDS011;1662;49.310;8.134;2023-06-22T01:49:01;8.10;;;7.30;;
3299;SDS011;1662;49.310;8.134;2023-06-22T01:51:27;9.10;;;7.27;;
3299;SDS011;1662;49.310;8.134;2023-06-22T01:53:53;8.37;;;7.77;;
3299;SDS011;1662;49.310;8.134;2023-06-22T01:56:19;8.70;;;7.90;;
3299;SDS011;1662;49.310;8.134;2023-06-22T01:58:53;8.70;;;7.90;;
3299;SDS011;1662;49.310;8.134;2023-06-22T02:01:38;9.80;;;7.13;;
3299;SDS011;1662;49.310;8.134;2023-06-22T02:04:18;8.13;;;7.30;;
3299;SDS011;1662;49.310;8.134;2023-06-22T02:06:46;8.00;;;7.30;;
3299;SDS011;1662;49.310;8.134;2023-06-22T02:09:15;8.13;;;7.43;;
3299;SDS011;1662;49.310;8.134;2023-06-22T02:11:44;7.67;;;7.07;;
3299;SDS011;1662;49.310;8.134;2023-06-22T02:14:13;7.73;;;7.03;;
3299;SDS011;1662;49.310;8.134;2023-06-22T02:16:39;8.10;;;7.40;;
3299;SDS011;1662;49.310;8.134;2023-06-22T02:19:06;8.20;;;7.60;;
3299;SDS011;1662;49.310;8.134;2023-06-22T02:21:33;8.20;;;7.60;;
3299;SDS011;1662;49.310;8.134;2023-06-22T02:23:59;7.40;;;6.87;;
3299;SDS011;1662;49.310;8.134;2023-06-22T02:26:25;7.30;;;6.80;;
3299;SDS011;1662;49.310;8.134;2023-06-22T02:28:52;7.90;;;7.27;;
3299;SDS011;1662;49.310;8.134;2023-06-22T02:31:18;8.40;;;7.70;;
3299;SDS011;1662;49.310;8.134;2023-06-22T02:33:43;7.60;;;6.97;;
3299;SDS011;1662;49.310;8.134;2023-06-22T02:36:10;7.93;;;7.43;;
3299;SDS011;1662;49.310;8.134;2023-06-22T02:38:38;8.43;;;7.83;;
3299;SDS011;1662;49.310;8.134;2023-06-22T02:41:13;7.83;;;7.33;;
3299;SDS011;1662;49.310;8.134;2023-06-22T02:43:42;8.03;;;7.30;;
3299;SDS011;1662;49.310;8.134;2023-06-22T02:46:09;8.40;;;7.73;;
3299;SDS011;1662;49.310;8.134;2023-06-22T02:48:35;9.43;;;8.67;;
3299;SDS011;1662;49.310;8.134;2023-06-22T02:51:00;8.60;;;7.90;;
3299;SDS011;1662;49.310;8.134;2023-06-22T02:53:26;9.47;;;8.53;;
3299;SDS011;1662;49.310;8.134;2023-06-22T02:55:51;8.67;;;7.90;;
3299;SDS011;1662;49.310;8.134;2023-06-22T02:58:17;9.50;;;8.67;;
3299;SDS011;1662;49.310;8.134;2023-06-22T03:00:42;8.63;;;7.93;;
3299;SDS011;1662;49.310;8.134;2023-06-22T03:03:10;8.93;;;8.23;;
3299;SDS011;1662;49.310;8.134;2023-06-22T03:05:36;9.27;;;8.27;;
3299;SDS011;1662;49.310;8.134;2023-06-22T03:08:01;9.50;;;8.70;;
3299;SDS011;1662;49.310;8.134;2023-06-22T03:10:27;10.70;;;9.50;;
3299;SDS011;1662;49.310;8.134;2023-06-22T03:12:52;10.23;;;9.23;;
3299;SDS011;1662;49.310;8.134;2023-06-22T03:15:20;10.60;;;9.73;;
3299;SDS011;1662;49.310;8.134;2023-06-22T03:17:46;12.40;;;11.27;;
3299;SDS011;1662;49.310;8.134;2023-06-22T03:20:12;10.73;;;9.90;;
3299;SDS011;1662;49.310;8.134;2023-06-22T03:22:38;10.23;;;9.33;;
3299;SDS011;1662;49.310;8.134;2023-06-22T03:25:04;11.67;;;10.57;;
3299;SDS011;1662;49.310;8.134;2023-06-22T03:27:35;11.10;;;10.20;;
3299;SDS011;1662;49.310;8.134;2023-06-22T03:30:07;11.47;;;10.50;;
3299;SDS011;1662;49.310;8.134;2023-06-22T03:32:35;11.57;;;10.47;;
3299;SDS011;1662;49.310;8.134;2023-06-22T03:35:01;11.50;;;10.50;;
3299;SDS011;1662;49.310;8.134;2023-06-22T03:37:27;12.23;;;10.97;;
3299;SDS011;1662;49.310;8.134;2023-06-22T03:39:53;12.07;;;11.00;;
3299;SDS011;1662;49.310;8.134;2023-06-22T03:42:19;12.77;;;11.67;;
3299;SDS011;1662;49.310;8.134;2023-06-22T03:44:45;12.53;;;11.43;;
3299;SDS011;1662;49.310;8.134;2023-06-22T03:47:10;11.70;;;10.80;;
3299;SDS011;1662;49.310;8.134;2023-06-22T03:49:36;12.40;;;11.40;;
3299;SDS011;1662;49.310;8.134;2023-06-22T03:52:02;12.83;;;11.63;;
3299;SDS011;1662;49.310;8.134;2023-06-22T03:54:28;12.30;;;11.00;;
3299;SDS011;1662;49.310;8.134;2023-06-22T03:56:54;11.70;;;10.57;;
3299;SDS011;1662;49.310;8.134;2023-06-22T03:59:21;12.70;;;11.30;;
3299;SDS011;1662;49.310;8.134;2023-06-22T04:01:47;12.87;;;11.67;;
3299;SDS011;1662;49.310;8.134;2023-06-22T04:04:13;13.30;;;12.00;;
3299;SDS011;1662;49.310;8.134;2023-06-22T04:06:38;12.07;;;11.00;;
3299;SDS011;1662;49.310;8.134;2023-06-22T04:09:05;12.00;;;10.90;;
3299;SDS011;1662;49.310;8.134;2023-06-22T04:11:31;13.83;;;11.73;;
3299;SDS011;1662;49.310;8.134;2023-06-22T04:13:57;13.87;;;12.43;;
3299;SDS011;1662;49.310;8.134;2023-06-22T04:16:23;13.23;;;11.57;;
3299;SDS011;1662;49.310;8.134;2023-06-22T04:18:48;13.57;;;12.17;;
3299;SDS011;1662;49.310;8.134;2023-06-22T04:21:14;12.53;;;11.43;;
3299;SDS011;1662;49.310;8.134;2023-06-22T04:23:39;12.10;;;11.10;;
3299;SDS011;1662;49.310;8.134;2023-06-22T04:26:05;19.97;;;13.00;;
3299;SDS011;1662;49.310;8.134;2023-06-22T04:28:31;14.23;;;12.90;;
3299;SDS011;1662;49.310;8.134;2023-06-22T04:31:00;13.97;;;12.67;;
3299;SDS011;1662;49.310;8.134;2023-06-22T04:33:27;14.20;;;12.90;;
3299;SDS011;1662;49.310;8.134;2023-06-22T04:35:55;15.90;;;14.40;;
3299;SDS011;1662;49.310;8.134;2023-06-22T04:38:26;14.80;;;13.20;;
3299;SDS011;1662;49.310;8.134;2023-06-22T04:40:52;13.57;;;12.47;;
3299;SDS011;1662;49.310;8.134;2023-06-22T04:43:18;15.20;;;13.90;;
3299;SDS011;1662;49.310;8.134;2023-06-22T04:45:44;17.17;;;15.43;;
3299;SDS011;1662;49.310;8.134;2023-06-22T04:48:10;15.30;;;13.57;;
3299;SDS011;1662;49.310;8.134;2023-06-22T04:50:40;15.90;;;14.33;;
3299;SDS011;1662;49.310;8.134;2023-06-22T04:53:06;17.03;;;15.33;;
3299;SDS011;1662;49.310;8.134;2023-06-22T04:55:32;16.73;;;15.10;;
3299;SDS011;1662;49.310;8.134;2023-06-22T04:57:58;17.83;;;15.93;;
3299;SDS011;1662;49.310;8.134;2023-06-22T05:00:30;16.20;;;14.60;;
3299;SDS011;1662;49.310;8.134;2023-06-22T05:02:56;14.10;;;12.90;;
3299;SDS011;1662;49.310;8.134;2023-06-22T05:05:23;14.80;;;13.23;;
3299;SDS011;1662;49.310;8.134;2023-06-22T05:07:49;17.37;;;15.53;;
3299;SDS011;1662;49.310;8.134;2023-06-22T05:10:18;15.90;;;14.40;;
3299;SDS011;1662;49.310;8.134;2023-06-22T05:12:44;15.03;;;13.60;;
3299;SDS011;1662;49.310;8.134;2023-06-22T05:15:11;11.90;;;10.80;;
3299;SDS011;1662;49.310;8.134;2023-06-22T05:17:36;14.57;;;13.27;;
3299;SDS011;1662;49.310;8.134;2023-06-22T05:20:08;13.70;;;12.50;;
3299;SDS011;1662;49.310;8.134;2023-06-22T05:22:41;12.63;;;11.53;;
3299;SDS011;1662;49.310;8.134;2023-06-22T05:25:09;10.80;;;9.80;;
3299;SDS011;1662;49.310;8.134;2023-06-22T05:27:36;14.50;;;13.20;;
3299;SDS011;1662;49.310;8.134;2023-06-22T05:30:07;11.23;;;10.20;;
3299;SDS011;1662;49.310;8.134;2023-06-22T05:32:33;13.20;;;12.00;;
3299;SDS011;1662;49.310;8.134;2023-06-22T05:34:59;13.63;;;12.43;;
3299;SDS011;1662;49.310;8.134;2023-06-22T05:37:25;11.07;;;10.20;;
3299;SDS011;1662;49.310;8.134;2023-06-22T05:39:51;12.30;;;11.20;;
3299;SDS011;1662;49.310;8.134;2023-06-22T05:42:20;11.30;;;10.40;;
3299;SDS011;1662;49.310;8.134;2023-06-22T05:44:46;10.17;;;9.37;;
3299;SDS011;1662;49.310;8.134;2023-06-22T05:47:12;8.17;;;7.57;;
3299;SDS011;1662;49.310;8.134;2023-06-22T05:49:38;11.07;;;9.97;;
3299;SDS011;1662;49.310;8.134;2023-06-22T05:52:03;10.53;;;9.57;;
3299;SDS011;1662;49.310;8.134;2023-06-22T05:54:29;11.60;;;10.60;;
3299;SDS011;1662;49.310;8.134;2023-06-22T05:56:55;11.20;;;10.10;;
3299;SDS011;1662;49.310;8.134;2023-06-22T05:59:21;9.87;;;9.07;;
3299;SDS011;1662;49.310;8.134;2023-06-22T06:01:46;10.57;;;9.67;;
3299;SDS011;1662;49.310;8.134;2023-06-22T06:04:16;10.50;;;9.70;;
3299;SDS011;1662;49.310;8.134;2023-06-22T06:06:42;10.40;;;9.37;;
3299;SDS011;1662;49.310;8.134;2023-06-22T06:09:08;10.40;;;9.60;;
3299;SDS011;1662;49.310;8.134;2023-06-22T06:11:36;10.07;;;9.27;;
3299;SDS011;1662;49.310;8.134;2023-06-22T06:14:02;10.80;;;9.80;;
3299;SDS011;1662;49.310;8.134;2023-06-22T06:16:28;10.60;;;9.70;;
3299;SDS011;1662;49.310;8.134;2023-06-22T06:18:56;11.97;;;10.93;;
3299;SDS011;1662;49.310;8.134;2023-06-22T06:21:23;13.10;;;10.00;;
3299;SDS011;1662;49.310;8.134;2023-06-22T06:23:49;9.77;;;8.87;;
3299;SDS011;1662;49.310;8.134;2023-06-22T06:26:14;9.40;;;8.50;;
3299;SDS011;1662;49.310;8.134;2023-06-22T06:28:41;10.40;;;9.53;;
3299;SDS011;1662;49.310;8.134;2023-06-22T06:31:10;10.63;;;9.23;;
3299;SDS011;1662;49.310;8.134;2023-06-22T06:33:37;9.40;;;8.60;;
3299;SDS011;1662;49.310;8.134;2023-06-22T06:36:02;8.60;;;8.00;;
3299;SDS011;1662;49.310;8.134;2023-06-22T06:38:29;12.47;;;10.70;;
3299;SDS011;1662;49.310;8.134;2023-06-22T06:40:55;10.63;;;9.70;;
3299;SDS011;1662;49.310;8.134;2023-06-22T06:43:21;9.80;;;8.90;;
3299;SDS011;1662;49.310;8.134;2023-06-22T06:45:47;11.70;;;10.60;;
3299;SDS011;1662;49.310;8.134;2023-06-22T06:48:13;10.57;;;9.77;;
3299;SDS011;1662;49.310;8.134;2023-06-22T06:50:39;10.00;;;9.20;;
3299;SDS011;1662;49.310;8.134;2023-06-22T06:53:04;11.47;;;10.47;;
3299;SDS011;1662;49.310;8.134;2023-06-22T06:55:31;12.83;;;11.73;;
3299;SDS011;1662;49.310;8.134;2023-06-22T06:57:58;11.40;;;10.33;;
3299;SDS011;1662;49.310;8.134;2023-06-22T07:00:29;9.77;;;9.00;;
3299;SDS011;1662;49.310;8.134;2023-06-22T07:02:54;14.50;;;11.80;;
3299;SDS011;1662;49.310;8.134;2023-06-22T07:05:20;9.83;;;9.00;;
3299;SDS011;1662;49.310;8.134;2023-06-22T07:07:46;9.93;;;9.13;;
3299;SDS011;1662;49.310;8.134;2023-06-22T07:10:11;10.50;;;9.70;;
3299;SDS011;1662;49.310;8.134;2023-06-22T07:12:37;11.10;;;10.17;;
3299;SDS011;1662;49.310;8.134;2023-06-22T07:15:03;12.17;;;11.17;;
3299;SDS011;1662;49.310;8.134;2023-06-22T07:17:30;10.47;;;9.60;;
3299;SDS011;1662;49.310;8.134;2023-06-22T07:19:56;12.37;;;11.27;;
3299;SDS011;1662;49.310;8.134;2023-06-22T07:22:22;11.17;;;10.10;;
3299;SDS011;1662;49.310;8.134;2023-06-22T07:24:47;10.57;;;9.73;;
3299;SDS011;1662;49.310;8.134;2023-06-22T07:27:14;10.13;;;9.33;;
3299;SDS011;1662;49.310;8.134;2023-06-22T07:29:43;10.53;;;9.73;;
3299;SDS011;1662;49.310;8.134;2023-06-22T07:32:08;9.50;;;8.80;;
3299;SDS011;1662;49.310;8.134;2023-06-22T07:34:34;9.53;;;8.77;;
3299;SDS011;1662;49.310;8.134;2023-06-22T07:36:59;10.40;;;9.40;;
3299;SDS011;1662;49.310;8.134;2023-06-22T07:39:25;12.27;;;11.07;;
3299;SDS011;1662;49.310;8.134;2023-06-22T07:41:51;20.10;;;12.07;;
3299;SDS011;1662;49.310;8.134;2023-06-22T07:44:17;9.70;;;8.83;;
3299;SDS011;1662;49.310;8.134;2023-06-22T07:46:43;9.33;;;8.43;;
3299;SDS011;1662;49.310;8.134;2023-06-22T07:49:08;11.20;;;10.20;;
3299;SDS011;1662;49.310;8.134;2023-06-22T07:51:34;10.73;;;9.90;;
3299;SDS011;1662;49.310;8.134;2023-06-22T07:54:00;10.97;;;10.07;;
3299;SDS011;1662;49.310;8.134;2023-06-22T07:56:25;10.87;;;9.70;;
3299;SDS011;1662;49.310;8.134;2023-06-22T07:58:51;11.13;;;10.20;;
3299;SDS011;1662;49.310;8.134;2023-06-22T08:01:18;10.90;;;10.00;;
3299;SDS011;1662;49.310;8.134;2023-06-22T08:03:46;9.63;;;8.83;;
3299;SDS011;1662;49.310;8.134;2023-06-22T08:06:13;12.03;;;11.10;;
3299;SDS011;1662;49.310;8.134;2023-06-22T08:08:38;12.40;;;11.40;;
3299;SDS011;1662;49.310;8.134;2023-06-22T08:11:04;10.10;;;9.30;;
3299;SDS011;1662;49.310;8.134;2023-06-22T08:13:30;9.50;;;8.80;;
3299;SDS011;1662;49.310;8.134;2023-06-22T08:15:56;10.33;;;9.33;;
3299;SDS011;1662;49.310;8.134;2023-06-22T08:18:22;10.10;;;9.10;;
3299;SDS011;1662;49.310;8.134;2023-06-22T08:20:47;20.63;;;10.33;;
3299;SDS011;1662;49.310;8.134;2023-06-22T08:23:13;10.63;;;9.63;;
3299;SDS011;1662;49.310;8.134;2023-06-22T08:25:38;13.87;;;10.60;;
3299;SDS011;1662;49.310;8.134;2023-06-22T08:28:04;9.60;;;8.80;;
3299;SDS011;1662;49.310;8.134;2023-06-22T08:30:30;9.93;;;9.13;;
3299;SDS011;1662;49.310;8.134;2023-06-22T08:32:55;10.10;;;9.30;;
3299;SDS011;1662;49.310;8.134;2023-06-22T08:35:22;9.60;;;8.87;;
3299;SDS011;1662;49.310;8.134;2023-06-22T08:37:48;10.63;;;9.80;;
3299;SDS011;1662;49.310;8.134;2023-06-22T08:40:20;11.00;;;10.10;;
3299;SDS011;1662;49.310;8.134;2023-06-22T08:42:46;11.60;;;10.50;;
3299;SDS011;1662;49.310;8.134;2023-06-22T08:45:13;10.37;;;9.47;;
3299;SDS011;1662;49.310;8.134;2023-06-22T08:47:39;9.57;;;8.53;;
3299;SDS011;1662;49.310;8.134;2023-06-22T08:50:09;9.67;;;8.80;;
3299;SDS011;1662;49.310;8.134;2023-06-22T08:52:35;10.60;;;7.87;;
3299;SDS011;1662;49.310;8.134;2023-06-22T08:55:01;8.40;;;7.80;;
3299;SDS011;1662;49.310;8.134;2023-06-22T08:57:27;9.40;;;8.60;;
3299;SDS011;1662;49.310;8.134;2023-06-22T08:59:53;8.30;;;7.60;;
3299;SDS011;1662;49.310;8.134;2023-06-22T09:02:23;9.50;;;8.53;;
3299;SDS011;1662;49.310;8.134;2023-06-22T09:04:49;8.87;;;8.17;;
3299;SDS011;1662;49.310;8.134;2023-06-22T09:07:20;11.70;;;7.20;;
3299;SDS011;1662;49.310;8.134;2023-06-22T09:09:48;7.77;;;7.27;;
3299;SDS011;1662;49.310;8.134;2023-06-22T09:12:14;7.57;;;6.97;;
3299;SDS011;1662;49.310;8.134;2023-06-22T09:14:39;8.03;;;7.23;;
3299;SDS011;1662;49.310;8.134;2023-06-22T09:17:05;7.17;;;6.57;;
3299;SDS011;1662;49.310;8.134;2023-06-22T09:19:31;8.17;;;7.37;;
3299;SDS011;1662;49.310;8.134;2023-06-22T09:21:59;8.70;;;7.27;;
3299;SDS011;1662;49.310;8.134;2023-06-22T09:24:25;8.80;;;7.90;;
3299;SDS011;1662;49.310;8.134;2023-06-22T09:26:50;8.43;;;7.67;;
3299;SDS011;1662;49.310;8.134;2023-06-22T09:29:16;9.10;;;8.20;;
3299;SDS011;1662;49.310;8.134;2023-06-22T09:31:42;8.00;;;7.37;;
3299;SDS011;1662;49.310;8.134;2023-06-22T09:34:10;7.97;;;7.17;;
3299;SDS011;1662;49.310;8.134;2023-06-22T09:36:35;8.13;;;7.43;;
3299;SDS011;1662;49.310;8.134;2023-06-22T09:39:01;8.97;;;8.07;;
3299;SDS011;1662;49.310;8.134;2023-06-22T09:41:30;9.80;;;8.93;;
3299;SDS011;1662;49.310;8.134;2023-06-22T09:43:56;8.27;;;7.47;;
3299;SDS011;1662;49.310;8.134;2023-06-22T09:46:22;8.87;;;8.17;;
3299;SDS011;1662;49.310;8.134;2023-06-22T09:48:50;7.90;;;7.30;;
3299;SDS011;1662;49.310;8.134;2023-06-22T09:51:16;10.67;;;8.80;;
3299;SDS011;1662;49.310;8.134;2023-06-22T09:53:41;10.17;;;7.73;;
3299;SDS011;1662;49.310;8.134;2023-06-22T09:56:07;9.63;;;8.70;;
3299;SDS011;1662;49.310;8.134;2023-06-22T09:58:36;10.27;;;9.30;;
3299;SDS011;1662;49.310;8.134;2023-06-22T10:01:02;9.33;;;8.43;;
3299;SDS011;1662;49.310;8.134;2023-06-22T10:03:27;8.20;;;7.50;;
3299;SDS011;1662;49.310;8.134;2023-06-22T10:05:53;10.80;;;8.53;;
3299;SDS011;1662;49.310;8.134;2023-06-22T10:08:19;8.20;;;7.60;;
3299;SDS011;1662;49.310;8.134;2023-06-22T10:10:45;8.60;;;7.87;;
3299;SDS011;1662;49.310;8.134;2023-06-22T10:13:11;9.40;;;8.70;;
3299;SDS011;1662;49.310;8.134;2023-06-22T10:15:39;8.50;;;7.73;;
3299;SDS011;1662;49.310;8.134;2023-06-22T10:18:05;10.00;;;9.00;;
3299;SDS011;1662;49.310;8.134;2023-06-22T10:20:31;9.37;;;8.30;;
3299;SDS011;1662;49.310;8.134;2023-06-22T10:22:56;9.20;;;8.40;;
3299;SDS011;1662;49.310;8.134;2023-06-22T10:25:22;10.73;;;8.30;;
3299;SDS011;1662;49.310;8.134;2023-06-22T10:27:48;9.40;;;8.70;;
3299;SDS011;1662;49.310;8.134;2023-06-22T10:30:14;9.60;;;8.90;;
3299;SDS011;1662;49.310;8.134;2023-06-22T10:32:41;9.10;;;8.40;;
3299;SDS011;1662;49.310;8.134;2023-06-22T10:35:08;10.30;;;8.90;;
3299;SDS011;1662;49.310;8.134;2023-06-22T10:37:35;10.03;;;9.20;;
3299;SDS011;1662;49.310;8.134;2023-06-22T10:40:01;9.07;;;7.97;;
3299;SDS011;1662;49.310;8.134;2023-06-22T10:42:28;10.40;;;9.33;;
3299;SDS011;1662;49.310;8.134;2023-06-22T10:44:56;9.80;;;8.80;;
3299;SDS011;1662;49.310;8.134;2023-06-22T10:47:21;9.33;;;8.53;;
3299;SDS011;1662;49.310;8.134;2023-06-22T10:49:47;8.83;;;8.03;;
3299;SDS011;1662;49.310;8.134;2023-06-22T10:52:13;9.07;;;8.17;;
3299;SDS011;1662;49.310;8.134;2023-06-22T10:54:38;9.37;;;8.37;;
3299;SDS011;1662;49.310;8.134;2023-06-22T10:57:04;9.97;;;9.10;;
3299;SDS011;1662;49.310;8.134;2023-06-22T10:59:32;8.63;;;7.83;;
3299;SDS011;1662;49.310;8.134;2023-06-22T11:01:58;11.30;;;8.40;;
3299;SDS011;1662;49.310;8.134;2023-06-22T11:04:24;9.83;;;8.80;;
3299;SDS011;1662;49.310;8.134;2023-06-22T11:06:50;11.70;;;8.97;;
3299;SDS011;1662;49.310;8.134;2023-06-22T11:09:16;8.37;;;7.70;;
3299;SDS011;1662;49.310;8.134;2023-06-22T11:11:45;9.77;;;9.00;;
3299;SDS011;1662;49.310;8.134;2023-06-22T11:14:15;8.47;;;7.87;;
3299;SDS011;1662;49.310;8.134;2023-06-22T11:16:41;9.10;;;8.33;;
3299;SDS011;1662;49.310;8.134;2023-06-22T11:19:06;9.40;;;8.70;;
3299;SDS011;1662;49.310;8.134;2023-06-22T11:21:32;9.17;;;8.30;;
3299;SDS011;1662;49.310;8.134;2023-06-22T11:24:01;11.10;;;9.10;;
3299;SDS011;1662;49.310;8.134;2023-06-22T11:26:26;9.40;;;7.80;;
3299;SDS011;1662;49.310;8.134;2023-06-22T11:28:52;9.80;;;8.90;;
3299;SDS011;1662;49.310;8.134;2023-06-22T11:31:18;10.83;;;9.27;;
3299;SDS011;1662;49.310;8.134;2023-06-22T11:33:44;13.70;;;9.13;;
3299;SDS011;1662;49.310;8.134;2023-06-22T11:36:11;9.60;;;8.67;;
3299;SDS011;1662;49.310;8.134;2023-06-22T11:38:36;10.30;;;9.30;;
3299;SDS011;1662;49.310;8.134;2023-06-22T11:41:04;9.53;;;8.47;;
3299;SDS011;1662;49.310;8.134;2023-06-22T11:43:30;11.07;;;8.80;;
3299;SDS011;1662;49.310;8.134;2023-06-22T11:45:56;9.40;;;8.70;;
3299;SDS011;1662;49.310;8.134;2023-06-22T11:48:23;9.30;;;8.40;;
3299;SDS011;1662;49.310;8.134;2023-06-22T11:50:49;9.60;;;8.87;;
3299;SDS011;1662;49.310;8.134;2023-06-22T11:53:15;9.43;;;8.63;;
3299;SDS011;1662;49.310;8.134;2023-06-22T11:55:42;9.77;;;8.80;;
3299;SDS011;1662;49.310;8.134;2023-06-22T11:58:08;10.63;;;9.67;;
3299;SDS011;1662;49.310;8.134;2023-06-22T12:00:34;11.20;;;9.37;;
3299;SDS011;1662;49.310;8.134;2023-06-22T12:02:59;13.20;;;10.00;;
3299;SDS011;1662;49.310;8.134;2023-06-22T12:05:25;11.67;;;10.00;;
3299;SDS011;1662;49.310;8.134;2023-06-22T12:07:52;10.17;;;9.33;;
3299;SDS011;1662;49.310;8.134;2023-06-22T12:10:19;11.47;;;10.27;;
3299;SDS011;1662;49.310;8.134;2023-06-22T12:12:45;10.63;;;9.63;;
3299;SDS011;1662;49.310;8.134;2023-06-22T12:15:11;10.90;;;9.80;;
3299;SDS011;1662;49.310;8.134;2023-06-22T12:17:37;9.57;;;8.67;;
3299;SDS011;1662;49.310;8.134;2023-06-22T12:20:03;11.30;;;10.30;;
3299;SDS011;1662;49.310;8.134;2023-06-22T12:22:31;11.00;;;9.73;;
3299;SDS011;1662;49.310;8.134;2023-06-22T12:24:57;11.20;;;10.20;;
3299;SDS011;1662;49.310;8.134;2023-06-22T12:27:22;10.77;;;9.67;;
3299;SDS011;1662;49.310;8.134;2023-06-22T12:29:48;10.87;;;9.73;;
3299;SDS011;1662;49.310;8.134;2023-06-22T12:32:14;11.07;;;10.00;;
3299;SDS011;1662;49.310;8.134;2023-06-22T12:34:41;11.23;;;10.17;;
3299;SDS011;1662;49.310;8.134;2023-06-22T12:37:07;11.07;;;10.10;;
3299;SDS011;1662;49.310;8.134;2023-06-22T12:39:33;9.80;;;9.00;;
3299;SDS011;1662;49.310;8.134;2023-06-22T12:41:58;11.93;;;10.43;;
3299;SDS011;1662;49.310;8.134;2023-06-22T12:44:24;11.83;;;10.93;;
3299;SDS011;1662;49.310;8.134;2023-06-22T12:46:49;16.30;;;10.87;;
3299;SDS011;1662;49.310;8.134;2023-06-22T12:49:15;10.73;;;9.77;;
3299;SDS011;1662;49.310;8.134;2023-06-22T12:51:41;11.37;;;10.37;;
3299;SDS011;1662;49.310;8.134;2023-06-22T12:54:08;13.43;;;10.80;;
3299;SDS011;1662;49.310;8.134;2023-06-22T12:56:33;12.73;;;11.50;;
3299;SDS011;1662;49.310;8.134;2023-06-22T12:58:59;10.90;;;9.90;;
3299;SDS011;1662;49.310;8.134;2023-06-22T13:01:26;11.70;;;10.50;;
3299;SDS011;1662;49.310;8.134;2023-06-22T13:03:53;10.97;;;10.07;;
3299;SDS011;1662;49.310;8.134;2023-06-22T13:06:18;10.87;;;9.97;;
3299;SDS011;1662;49.310;8.134;2023-06-22T13:08:44;11.63;;;10.43;;
3299;SDS011;1662;49.310;8.134;2023-06-22T13:11:10;11.40;;;10.20;;
3299;SDS011;1662;49.310;8.134;2023-06-22T13:13:35;13.50;;;10.57;;
3299;SDS011;1662;49.310;8.134;2023-06-22T13:16:01;18.67;;;10.50;;
3299;SDS011;1662;49.310;8.134;2023-06-22T13:18:27;12.00;;;10.83;;
3299;SDS011;1662;49.310;8.134;2023-06-22T13:20:52;11.23;;;10.10;;
3299;SDS011;1662;49.310;8.134;2023-06-22T13:23:19;11.80;;;10.80;;
3299;SDS011;1662;49.310;8.134;2023-06-22T13:25:46;11.70;;;10.67;;
3299;SDS011;1662;49.310;8.134;2023-06-22T13:28:11;11.73;;;10.50;;
3299;SDS011;1662;49.310;8.134;2023-06-22T13:30:38;12.70;;;11.10;;
3299;SDS011;1662;49.310;8.134;2023-06-22T13:33:05;11.47;;;10.00;;
3299;SDS011;1662;49.310;8.134;2023-06-22T13:35:31;14.53;;;11.73;;
3299;SDS011;1662;49.310;8.134;2023-06-22T13:37:56;11.23;;;10.10;;
3299;SDS011;1662;49.310;8.134;2023-06-22T13:40:22;11.70;;;10.60;;
3299;SDS011;1662;49.310;8.134;2023-06-22T13:42:48;12.67;;;10.27;;
3299;SDS011;1662;49.310;8.134;2023-06-22T13:45:13;13.27;;;12.17;;
3299;SDS011;1662;49.310;8.134;2023-06-22T13:47:42;12.10;;;11.20;;
3299;SDS011;1662;49.310;8.134;2023-06-22T13:50:07;14.07;;;11.30;;
3299;SDS011;1662;49.310;8.134;2023-06-22T13:52:37;12.03;;;11.03;;
3299;SDS011;1662;49.310;8.134;2023-06-22T13:55:03;12.33;;;11.10;;
3299;SDS011;1662;49.310;8.134;2023-06-22T13:57:30;12.67;;;10.13;;
3299;SDS011;1662;49.310;8.134;2023-06-22T13:59:55;14.23;;;11.43;;
3299;SDS011;1662;49.310;8.134;2023-06-22T14:02:21;11.33;;;10.20;;
3299;SDS011;1662;49.310;8.134;2023-06-22T14:04:48;10.70;;;9.80;;
3299;SDS011;1662;49.310;8.134;2023-06-22T14:07:14;11.17;;;9.23;;
3299;SDS011;1662;49.310;8.134;2023-06-22T14:09:42;17.73;;;9.70;;
3299;SDS011;1662;49.310;8.134;2023-06-22T14:12:09;10.07;;;9.07;;
3299;SDS011;1662;49.310;8.134;2023-06-22T14:14:38;14.63;;;9.67;;
3299;SDS011;1662;49.310;8.134;2023-06-22T14:17:03;9.97;;;9.17;;
3299;SDS011;1662;49.310;8.134;2023-06-22T14:19:30;15.30;;;10.63;;
3299;SDS011;1662;49.310;8.134;2023-06-22T14:21:55;17.93;;;10.70;;
3299;SDS011;1662;49.310;8.134;2023-06-22T14:24:22;12.50;;;11.20;;
3299;SDS011;1662;49.310;8.134;2023-06-22T14:26:48;14.73;;;11.23;;
3299;SDS011;1662;49.310;8.134;2023-06-22T14:29:13;14.30;;;11.20;;
3299;SDS011;1662;49.310;8.134;2023-06-22T14:31:39;12.97;;;10.60;;
3299;SDS011;1662;49.310;8.134;2023-06-22T14:34:05;11.20;;;10.20;;
3299;SDS011;1662;49.310;8.134;2023-06-22T14:36:31;13.90;;;10.53;;
3299;SDS011;1662;49.310;8.134;2023-06-22T14:38:59;12.87;;;9.67;;
3299;SDS011;1662;49.310;8.134;2023-06-22T14:41:25;12.90;;;10.23;;
3299;SDS011;1662;49.310;8.134;2023-06-22T14:43:50;12.50;;;11.30;;
3299;SDS011;1662;49.310;8.134;2023-06-22T14:46:17;11.70;;;10.13;;
3299;SDS011;1662;49.310;8.134;2023-06-22T14:48:44;16.27;;;10.73;;
3299;SDS011;1662;49.310;8.134;2023-06-22T14:51:09;14.33;;;10.70;;
3299;SDS011;1662;49.310;8.134;2023-06-22T14:53:36;10.80;;;9.70;;
3299;SDS011;1662;49.310;8.134;2023-06-22T14:56:02;20.73;;;11.13;;
3299;SDS011;1662;49.310;8.134;2023-06-22T14:58:28;12.20;;;10.90;;
3299;SDS011;1662;49.310;8.134;2023-06-22T15:01:01;16.07;;;10.60;;
3299;SDS011;1662;49.310;8.134;2023-06-22T15:03:30;13.10;;;10.50;;
3299;SDS011;1662;49.310;8.134;2023-06-22T15:05:57;10.80;;;9.80;;